sensor_id;sensor_type;location;lat;lon;timestamp;temperature;humidity
23827;DHT22;12094;50.822;4.376;2023-07-29T00:01:34;19.80;99.90
23827;DHT22;12094;50.822;4.376;2023-07-29T00:04:05;19.80;99.90
23827;DHT22;12094;50.822;4.376;2023-07-29T00:06:32;19.80;99.90
23827;DHT22;12094;50.822;4.376;2023-07-29T00:08:59;19.80;99.90
23827;DHT22;12094;50.822;4.376;2023-07-29T00:11:27;19.70;99.90
23827;DHT22;12094;50.822;4.376;2023-07-29T00:13:54;19.70;99.90
23827;DHT22;12094;50.822;4.376;2023-07-29T00:16:22;19.70;99.90
23827;DHT22;12094;50.822;4.376;2023-07-29T00:18:52;19.60;99.90
23827;DHT22;12094;50.822;4.376;2023-07-29T00:21:20;19.50;99.90
23827;DHT22;12094;50.822;4.376;2023-07-29T00:23:47;19.40;99.90
23827;DHT22;12094;50.822;4.376;2023-07-29T00:26:14;19.50;99.90
23827;DHT22;12094;50.822;4.376;2023-07-29T00:28:41;19.50;99.90
23827;DHT22;12094;50.822;4.376;2023-07-29T00:31:08;19.60;99.90
23827;DHT22;12094;50.822;4.376;2023-07-29T00:33:35;19.70;99.90
23827;DHT22;12094;50.822;4.376;2023-07-29T00:36:02;19.80;99.90
23827;DHT22;12094;50.822;4.376;2023-07-29T00:38:30;19.70;99.90
23827;DHT22;12094;50.822;4.376;2023-07-29T00:40:57;19.70;99.90
23827;DHT22;12094;50.822;4.376;2023-07-29T00:43:26;19.70;99.90
23827;DHT22;12094;50.822;4.376;2023-07-29T00:45:53;19.70;99.90
23827;DHT22;12094;50.822;4.376;2023-07-29T00:48:20;19.70;99.90
23827;DHT22;12094;50.822;4.376;2023-07-29T00:50:48;19.80;99.90
23827;DHT22;12094;50.822;4.376;2023-07-29T00:53:15;19.70;99.90
23827;DHT22;12094;50.822;4.376;2023-07-29T00:55:42;19.60;99.90
23827;DHT22;12094;50.822;4.376;2023-07-29T00:58:10;19.50;99.90
23827;DHT22;12094;50.822;4.376;2023-07-29T01:00:37;19.50;99.90
23827;DHT22;12094;50.822;4.376;2023-07-29T01:03:05;19.50;99.90
23827;DHT22;12094;50.822;4.376;2023-07-29T01:05:50;19.50;99.90
23827;DHT22;12094;50.822;4.376;2023-07-29T01:13:53;19.60;99.90
23827;DHT22;12094;50.822;4.376;2023-07-29T01:16:37;19.50;99.90
23827;DHT22;12094;50.822;4.376;2023-07-29T01:19:06;19.40;99.90
23827;DHT22;12094;50.822;4.376;2023-07-29T01:21:38;19.30;99.90
23827;DHT22;12094;50.822;4.376;2023-07-29T01:24:05;19.30;99.90
23827;DHT22;12094;50.822;4.376;2023-07-29T01:26:32;19.20;99.90
23827;DHT22;12094;50.822;4.376;2023-07-29T01:29:02;19.30;99.90
23827;DHT22;12094;50.822;4.376;2023-07-29T01:31:33;19.10;99.90
23827;DHT22;12094;50.822;4.376;2023-07-29T01:34:35;18.90;99.90
23827;DHT22;12094;50.822;4.376;2023-07-29T01:37:06;18.70;99.90
23827;DHT22;12094;50.822;4.376;2023-07-29T01:39:37;18.60;99.90
23827;DHT22;12094;50.822;4.376;2023-07-29T01:42:04;18.50;99.90
23827;DHT22;12094;50.822;4.376;2023-07-29T01:44:32;18.40;99.90
23827;DHT22;12094;50.822;4.376;2023-07-29T01:47:03;18.30;99.90
23827;DHT22;12094;50.822;4.376;2023-07-29T01:49:33;18.30;99.90
23827;DHT22;12094;50.822;4.376;2023-07-29T01:52:00;18.30;99.90
23827;DHT22;12094;50.822;4.376;2023-07-29T01:54:27;18.30;99.90
23827;DHT22;12094;50.822;4.376;2023-07-29T01:56:57;18.40;99.90
23827;DHT22;12094;50.822;4.376;2023-07-29T01:59:24;18.40;99.90
23827;DHT22;12094;50.822;4.376;2023-07-29T02:01:54;18.30;99.90
23827;DHT22;12094;50.822;4.376;2023-07-29T02:04:21;18.30;99.90
23827;DHT22;12094;50.822;4.376;2023-07-29T02:06:48;18.20;99.90
23827;DHT22;12094;50.822;4.376;2023-07-29T02:09:15;18.10;99.90
23827;DHT22;12094;50.822;4.376;2023-07-29T02:11:42;18.10;99.90
23827;DHT22;12094;50.822;4.376;2023-07-29T02:14:09;18.10;99.90
23827;DHT22;12094;50.822;4.376;2023-07-29T02:16:35;18.10;99.90
23827;DHT22;12094;50.822;4.376;2023-07-29T02:19:06;18.10;99.90
23827;DHT22;12094;50.822;4.376;2023-07-29T02:21:32;18.10;99.90
23827;DHT22;12094;50.822;4.376;2023-07-29T02:23:59;18.10;99.90
23827;DHT22;12094;50.822;4.376;2023-07-29T02:26:26;18.20;99.90
23827;DHT22;12094;50.822;4.376;2023-07-29T02:28:53;18.20;99.90
23827;DHT22;12094;50.822;4.376;2023-07-29T02:31:22;18.20;99.90
23827;DHT22;12094;50.822;4.376;2023-07-29T02:33:50;18.30;99.90
23827;DHT22;12094;50.822;4.376;2023-07-29T02:36:18;18.20;99.90
23827;DHT22;12094;50.822;4.376;2023-07-29T02:38:45;18.20;99.90
23827;DHT22;12094;50.822;4.376;2023-07-29T02:41:13;18.20;99.90
23827;DHT22;12094;50.822;4.376;2023-07-29T02:43:43;18.20;99.90
23827;DHT22;12094;50.822;4.376;2023-07-29T02:46:10;18.20;99.90
23827;DHT22;12094;50.822;4.376;2023-07-29T02:48:37;18.10;99.90
23827;DHT22;12094;50.822;4.376;2023-07-29T02:51:04;18.10;99.90
23827;DHT22;12094;50.822;4.376;2023-07-29T02:53:31;18.10;99.90
23827;DHT22;12094;50.822;4.376;2023-07-29T02:55:58;18.10;99.90
23827;DHT22;12094;50.822;4.376;2023-07-29T02:58:26;18.10;99.90
23827;DHT22;12094;50.822;4.376;2023-07-29T03:00:53;18.10;99.90
23827;DHT22;12094;50.822;4.376;2023-07-29T03:03:20;18.00;99.90
23827;DHT22;12094;50.822;4.376;2023-07-29T03:05:47;18.00;99.90
23827;DHT22;12094;50.822;4.376;2023-07-29T03:08:14;17.90;99.90
23827;DHT22;12094;50.822;4.376;2023-07-29T03:10:41;17.90;99.90
23827;DHT22;12094;50.822;4.376;2023-07-29T03:13:08;17.90;99.90
23827;DHT22;12094;50.822;4.376;2023-07-29T03:15:35;17.90;99.90
23827;DHT22;12094;50.822;4.376;2023-07-29T03:18:03;17.80;99.90
23827;DHT22;12094;50.822;4.376;2023-07-29T03:20:31;17.80;99.90
23827;DHT22;12094;50.822;4.376;2023-07-29T03:22:58;17.70;99.90
23827;DHT22;12094;50.822;4.376;2023-07-29T03:25:25;17.70;99.90
23827;DHT22;12094;50.822;4.376;2023-07-29T03:27:53;17.60;99.90
23827;DHT22;12094;50.822;4.376;2023-07-29T03:30:21;17.60;99.90
23827;DHT22;12094;50.822;4.376;2023-07-29T03:32:49;17.70;99.90
23827;DHT22;12094;50.822;4.376;2023-07-29T03:35:17;17.70;99.90
23827;DHT22;12094;50.822;4.376;2023-07-29T03:37:44;17.60;99.90
23827;DHT22;12094;50.822;4.376;2023-07-29T03:40:11;17.60;99.90
23827;DHT22;12094;50.822;4.376;2023-07-29T03:42:38;17.50;99.90
23827;DHT22;12094;50.822;4.376;2023-07-29T03:45:05;17.50;99.90
23827;DHT22;12094;50.822;4.376;2023-07-29T03:47:32;17.50;99.90
23827;DHT22;12094;50.822;4.376;2023-07-29T03:49:59;17.50;99.90
23827;DHT22;12094;50.822;4.376;2023-07-29T03:52:27;17.40;99.90
23827;DHT22;12094;50.822;4.376;2023-07-29T03:54:55;17.50;99.90
23827;DHT22;12094;50.822;4.376;2023-07-29T03:57:23;17.50;99.90
23827;DHT22;12094;50.822;4.376;2023-07-29T03:59:50;17.40;99.90
23827;DHT22;12094;50.822;4.376;2023-07-29T04:02:18;17.50;99.90
23827;DHT22;12094;50.822;4.376;2023-07-29T04:04:45;17.50;99.90
23827;DHT22;12094;50.822;4.376;2023-07-29T04:07:15;17.50;99.90
23827;DHT22;12094;50.822;4.376;2023-07-29T04:09:42;17.50;99.90
23827;DHT22;12094;50.822;4.376;2023-07-29T04:12:10;17.40;99.90
23827;DHT22;12094;50.822;4.376;2023-07-29T04:14:37;17.50;99.90
23827;DHT22;12094;50.822;4.376;2023-07-29T04:17:05;17.50;99.90
23827;DHT22;12094;50.822;4.376;2023-07-29T04:19:32;17.40;99.90
23827;DHT22;12094;50.822;4.376;2023-07-29T04:21:59;17.50;99.90
23827;DHT22;12094;50.822;4.376;2023-07-29T04:24:29;17.50;99.90
23827;DHT22;12094;50.822;4.376;2023-07-29T04:26:56;17.50;99.90
23827;DHT22;12094;50.822;4.376;2023-07-29T04:29:24;17.50;99.90
23827;DHT22;12094;50.822;4.376;2023-07-29T04:31:52;17.50;99.90
23827;DHT22;12094;50.822;4.376;2023-07-29T04:34:19;17.50;99.90
23827;DHT22;12094;50.822;4.376;2023-07-29T04:36:46;17.50;99.90
23827;DHT22;12094;50.822;4.376;2023-07-29T04:39:15;17.60;99.90
23827;DHT22;12094;50.822;4.376;2023-07-29T04:41:42;17.50;99.90
23827;DHT22;12094;50.822;4.376;2023-07-29T04:44:09;17.60;99.90
23827;DHT22;12094;50.822;4.376;2023-07-29T04:46:36;17.50;99.90
23827;DHT22;12094;50.822;4.376;2023-07-29T04:49:05;17.40;99.90
23827;DHT22;12094;50.822;4.376;2023-07-29T04:51:32;17.50;99.90
23827;DHT22;12094;50.822;4.376;2023-07-29T04:53:59;17.50;99.90
23827;DHT22;12094;50.822;4.376;2023-07-29T04:56:30;17.50;99.90
23827;DHT22;12094;50.822;4.376;2023-07-29T04:58:57;17.50;99.90
23827;DHT22;12094;50.822;4.376;2023-07-29T05:01:24;17.60;99.90
23827;DHT22;12094;50.822;4.376;2023-07-29T05:03:52;17.50;99.90
23827;DHT22;12094;50.822;4.376;2023-07-29T05:06:19;17.60;99.90
23827;DHT22;12094;50.822;4.376;2023-07-29T05:08:46;17.60;99.90
23827;DHT22;12094;50.822;4.376;2023-07-29T05:11:13;17.50;99.90
23827;DHT22;12094;50.822;4.376;2023-07-29T05:13:41;17.40;99.90
23827;DHT22;12094;50.822;4.376;2023-07-29T05:16:11;17.40;99.90
23827;DHT22;12094;50.822;4.376;2023-07-29T05:18:38;17.50;99.90
23827;DHT22;12094;50.822;4.376;2023-07-29T05:21:05;17.50;99.90
23827;DHT22;12094;50.822;4.376;2023-07-29T05:23:32;17.60;99.90
23827;DHT22;12094;50.822;4.376;2023-07-29T05:25:59;17.60;99.90
